createdAt,value
2019-03-09T00:01:14.562Z,100866.52
2019-03-09T00:03:44.957Z,100873.42
2019-03-09T00:06:15.501Z,100880.61
2019-03-09T00:08:45.918Z,100869.21
2019-03-09T00:11:18.071Z,100861.52
2019-03-09T00:13:48.607Z,100859.45
2019-03-09T00:16:19.173Z,100854.11
2019-03-09T00:18:50.006Z,100845.84
2019-03-09T00:21:20.639Z,100847.67
2019-03-09T00:24:01.715Z,100838.51
2019-03-09T00:26:33.882Z,100821.55
2019-03-09T00:29:11.887Z,100821.62
2019-03-09T00:31:46.920Z,100833.14
2019-03-09T00:34:17.248Z,100843.14
2019-03-09T00:36:47.773Z,100855.48
2019-03-09T00:39:18.194Z,100851.16
2019-03-09T00:41:48.826Z,100844.03
2019-03-09T00:44:19.050Z,100861.27
2019-03-09T00:46:49.472Z,100861.95
2019-03-09T00:49:20.002Z,100870.75
2019-03-09T00:51:50.905Z,100863.20
2019-03-09T00:54:21.265Z,100872.00
2019-03-09T00:56:51.691Z,100871.63
2019-03-09T00:59:22.114Z,100874.41
2019-03-09T01:01:53.154Z,100864.27
2019-03-09T01:04:23.580Z,100874.63
2019-03-09T01:06:54.109Z,100876.86
2019-03-09T01:09:24.638Z,100868.60
2019-03-09T01:11:55.169Z,100869.88
2019-03-09T01:14:25.499Z,100855.11
2019-03-09T01:16:55.923Z,100849.25
2019-03-09T01:19:26.449Z,100868.63
2019-03-09T01:21:56.974Z,100864.87
2019-03-09T01:24:27.201Z,100874.12
2019-03-09T01:26:57.525Z,100871.95
2019-03-09T01:29:27.944Z,100883.84
2019-03-09T01:31:58.472Z,100888.33
2019-03-09T01:34:29.001Z,100889.88
2019-03-09T01:36:59.529Z,100882.82
2019-03-09T01:39:31.184Z,100879.30
2019-03-09T01:42:01.715Z,100879.20
2019-03-09T01:44:31.935Z,100887.86
2019-03-09T01:47:02.322Z,100880.14
2019-03-09T01:49:32.888Z,100883.65
2019-03-09T01:52:03.741Z,100877.13
2019-03-09T01:54:34.048Z,100885.47
2019-03-09T01:57:06.067Z,100882.52
2019-03-09T01:59:36.642Z,100873.75
2019-03-09T02:02:07.277Z,100874.41
2019-03-09T02:04:37.597Z,100874.70
2019-03-09T02:07:08.124Z,100871.19
2019-03-09T02:09:39.576Z,100871.66
2019-03-09T02:12:10.205Z,100872.25
2019-03-09T02:14:40.530Z,100864.58
2019-03-09T02:17:10.751Z,100865.75
2019-03-09T02:19:41.176Z,100864.37
2019-03-09T02:22:11.706Z,100869.41
2019-03-09T02:24:42.233Z,100867.18
2019-03-09T02:27:12.457Z,100868.95
2019-03-09T02:29:42.888Z,100864.58
2019-03-09T02:32:13.311Z,100859.12
2019-03-09T02:34:43.839Z,100863.77
2019-03-09T02:37:14.364Z,100852.79
2019-03-09T02:39:49.308Z,100852.07
2019-03-09T02:42:19.738Z,100844.31
2019-03-09T02:44:50.264Z,100848.83
2019-03-09T02:47:20.785Z,100837.77
2019-03-09T02:49:51.307Z,100844.38
2019-03-09T02:52:23.671Z,100857.64
2019-03-09T02:54:54.581Z,100860.92
2019-03-09T02:57:26.994Z,100852.42
2019-03-09T02:59:57.527Z,100856.75
2019-03-09T03:02:29.790Z,100853.84
2019-03-09T03:05:00.009Z,100842.51
2019-03-09T03:07:30.435Z,100849.47
2019-03-09T03:10:00.657Z,100855.73
2019-03-09T03:12:31.087Z,100849.70
2019-03-09T03:15:01.531Z,100843.72
2019-03-09T03:17:32.039Z,100843.39
2019-03-09T03:20:02.572Z,100847.87
2019-03-09T03:22:32.992Z,100841.16
2019-03-09T03:25:03.698Z,100836.02
2019-03-09T03:27:33.968Z,100844.07
2019-03-09T03:30:05.746Z,100860.16
2019-03-09T03:32:36.848Z,100856.20
2019-03-09T03:35:09.706Z,100856.20
2019-03-09T03:37:39.864Z,100867.03
2019-03-09T03:40:10.890Z,100871.13
2019-03-09T03:42:41.328Z,100864.12
2019-03-09T03:45:12.564Z,100870.45
2019-03-09T03:47:42.793Z,100864.13
2019-03-09T03:50:13.220Z,100855.72
2019-03-09T03:52:44.561Z,100854.48
2019-03-09T03:55:15.416Z,100860.80
2019-03-09T03:57:45.927Z,100856.02
2019-03-09T04:00:16.455Z,100845.52
2019-03-09T04:02:47.186Z,100859.67
2019-03-09T04:05:17.609Z,100860.94
2019-03-09T04:07:47.834Z,100844.30
2019-03-09T04:10:19.841Z,100845.55
2019-03-09T04:12:50.322Z,100852.31
2019-03-09T04:15:20.961Z,100850.44
2019-03-09T04:17:51.175Z,100855.73
2019-03-09T04:20:21.601Z,100842.60
2019-03-09T04:22:52.130Z,100847.39
2019-03-09T04:25:22.656Z,100841.56
2019-03-09T04:27:52.883Z,100840.68
2019-03-09T04:30:23.206Z,100856.27
2019-03-09T04:32:54.819Z,100860.71
2019-03-09T04:35:25.187Z,100867.51
2019-03-09T04:37:55.506Z,100872.94
2019-03-09T04:40:25.934Z,100860.57
2019-03-09T04:42:56.356Z,100862.47
2019-03-09T04:45:26.579Z,100871.36
2019-03-09T04:47:56.972Z,100880.52
2019-03-09T04:50:27.435Z,100888.59
2019-03-09T04:52:58.262Z,100889.05
2019-03-09T04:55:28.997Z,100886.16
2019-03-09T04:57:59.525Z,100884.95
2019-03-09T05:00:29.710Z,100892.52
2019-03-09T05:03:00.496Z,100892.74
2019-03-09T05:05:31.182Z,100904.66
2019-03-09T05:08:06.622Z,100889.91
2019-03-09T05:10:42.823Z,100888.41
2019-03-09T05:13:23.812Z,100889.27
2019-03-09T05:15:54.013Z,100877.73
2019-03-09T05:18:26.081Z,100892.76
2019-03-09T05:20:56.608Z,100895.93
2019-03-09T05:23:27.105Z,100894.13
2019-03-09T05:25:57.664Z,100906.03
2019-03-09T05:28:28.094Z,100909.34
2019-03-09T05:30:58.517Z,100900.92
2019-03-09T05:33:28.906Z,100899.42
2019-03-09T05:36:01.305Z,100908.25
2019-03-09T05:38:32.887Z,100900.02
2019-03-09T05:41:03.468Z,100911.72
2019-03-09T05:43:34.435Z,100912.28
2019-03-09T05:46:04.758Z,100898.63
2019-03-09T05:48:35.387Z,100911.98
2019-03-09T05:51:06.024Z,100914.41
2019-03-09T05:53:37.017Z,100915.41
2019-03-09T05:56:07.979Z,100905.88
2019-03-09T05:58:38.731Z,100900.94
2019-03-09T06:01:09.588Z,100906.38
2019-03-09T06:03:40.304Z,100903.91
2019-03-09T06:06:11.036Z,100893.23
2019-03-09T06:08:41.770Z,100902.94
2019-03-09T06:11:12.504Z,100922.28
2019-03-09T06:13:43.032Z,100908.81
2019-03-09T06:16:13.461Z,100891.76
2019-03-09T06:18:43.987Z,100887.59
2019-03-09T06:21:14.632Z,100885.58
2019-03-09T06:23:45.054Z,100884.52
2019-03-09T06:26:15.365Z,100884.36
2019-03-09T06:28:45.997Z,100888.69
2019-03-09T06:31:17.001Z,100911.33
2019-03-09T06:33:47.568Z,100915.80
2019-03-09T06:36:31.719Z,100933.09
2019-03-09T06:39:05.011Z,100922.35
2019-03-09T06:41:52.637Z,100918.87
2019-03-09T06:44:23.063Z,100921.15
2019-03-09T06:46:53.695Z,100911.75
2019-03-09T06:49:25.373Z,100906.98
2019-03-09T06:51:56.367Z,100903.68
2019-03-09T06:54:26.711Z,100896.68
2019-03-09T06:56:57.243Z,100906.94
2019-03-09T06:59:27.643Z,100923.81
2019-03-09T07:02:01.370Z,100926.71
2019-03-09T07:04:32.210Z,100930.54
2019-03-09T07:07:04.474Z,100933.77
2019-03-09T07:09:36.322Z,100947.89
2019-03-09T07:12:09.528Z,100930.22
2019-03-09T07:14:55.885Z,100937.69
2019-03-09T07:17:26.456Z,100933.25
2019-03-09T07:20:00.357Z,100920.66
2019-03-09T07:22:31.101Z,100914.28
2019-03-09T07:25:03.308Z,100910.87
2019-03-09T07:27:34.303Z,100910.90
2019-03-09T07:30:12.241Z,100915.19
2019-03-09T07:32:42.840Z,100915.09
2019-03-09T07:35:13.141Z,100918.77
2019-03-09T07:37:43.788Z,100918.44
2019-03-09T07:40:14.217Z,100919.63
2019-03-09T07:42:44.867Z,100929.02
2019-03-09T07:45:15.245Z,100927.56
2019-03-09T07:47:46.895Z,100928.66
2019-03-09T07:50:19.603Z,100916.40
2019-03-09T07:52:50.549Z,100904.17
2019-03-09T07:55:21.795Z,100890.34
2019-03-09T07:57:52.419Z,100883.56
2019-03-09T08:00:22.759Z,100882.13
2019-03-09T08:02:53.854Z,100876.41
2019-03-09T08:05:24.311Z,100880.22
2019-03-09T08:07:54.845Z,100879.61
2019-03-09T08:10:28.132Z,100875.69
2019-03-09T08:12:58.972Z,100882.57
2019-03-09T08:15:29.704Z,100873.39
2019-03-09T08:18:08.482Z,100891.05
2019-03-09T08:20:45.809Z,100880.80
2019-03-09T08:23:18.204Z,100875.81
2019-03-09T08:25:51.736Z,100870.97
2019-03-09T08:28:22.111Z,100858.38
2019-03-09T08:30:52.748Z,100840.87
2019-03-09T08:33:23.495Z,100844.71
2019-03-09T08:35:55.437Z,100847.08
2019-03-09T08:38:30.746Z,100849.47
2019-03-09T08:41:03.566Z,100843.67
2019-03-09T08:43:34.686Z,100840.77
2019-03-09T08:46:10.249Z,100851.66
2019-03-09T08:48:45.411Z,100853.85
2019-03-09T08:51:32.624Z,100854.84
2019-03-09T08:54:04.057Z,100848.16
2019-03-09T08:56:36.076Z,100840.55
2019-03-09T08:59:06.751Z,100826.42
2019-03-09T09:01:37.749Z,100829.60
2019-03-09T09:04:13.229Z,100822.51
2019-03-09T09:06:44.181Z,100818.56
2019-03-09T09:09:18.577Z,100843.52
2019-03-09T09:11:56.136Z,100860.14
2019-03-09T09:14:31.731Z,100861.99
2019-03-09T09:17:12.269Z,100862.49
2019-03-09T09:19:49.148Z,100888.77
2019-03-09T09:22:20.975Z,100915.25
2019-03-09T09:24:56.183Z,100903.47
2019-03-09T09:27:26.598Z,100897.63
2019-03-09T09:29:57.135Z,100890.08
2019-03-09T09:32:27.759Z,100890.70
2019-03-09T09:34:58.286Z,100869.44
2019-03-09T09:37:28.637Z,100865.88
2019-03-09T09:39:59.136Z,100878.75
2019-03-09T09:42:29.564Z,100881.36
2019-03-09T09:44:59.989Z,100885.66
2019-03-09T09:47:30.330Z,100874.09
2019-03-09T09:50:00.944Z,100856.47
2019-03-09T09:52:31.848Z,100852.98
2019-03-09T09:55:02.206Z,100854.27
2019-03-09T09:57:33.457Z,100862.52
2019-03-09T10:00:06.131Z,100825.67
2019-03-09T10:02:36.859Z,100813.88
2019-03-09T10:05:08.728Z,100800.55
2019-03-09T10:07:39.562Z,100798.83
2019-03-09T10:10:14.460Z,100825.47
2019-03-09T10:12:46.461Z,100848.17
2019-03-09T10:15:17.871Z,100842.56
2019-03-09T10:17:48.222Z,100835.71
2019-03-09T10:20:18.659Z,100816.79
2019-03-09T10:22:50.530Z,100814.84
2019-03-09T10:25:21.140Z,100835.04
2019-03-09T10:27:52.203Z,100848.79
2019-03-09T10:30:23.014Z,100862.26
2019-03-09T10:32:53.445Z,100874.03
2019-03-09T10:35:24.853Z,100875.42
2019-03-09T10:37:57.213Z,100888.71
2019-03-09T10:40:27.911Z,100880.58
2019-03-09T10:42:58.649Z,100874.30
2019-03-09T10:45:36.862Z,100873.84
2019-03-09T10:48:10.847Z,100870.41
2019-03-09T10:50:41.373Z,100865.40
2019-03-09T10:53:12.213Z,100856.19
2019-03-09T10:55:43.060Z,100817.70
2019-03-09T10:58:15.030Z,100833.04
2019-03-09T11:00:45.903Z,100843.69
2019-03-09T11:03:16.476Z,100852.95
2019-03-09T11:05:47.620Z,100845.56
2019-03-09T11:08:17.910Z,100835.92
2019-03-09T11:10:51.618Z,100823.80
2019-03-09T11:13:23.407Z,100818.77
2019-03-09T11:15:54.034Z,100813.22
2019-03-09T11:18:24.533Z,100789.52
2019-03-09T11:20:56.013Z,100789.79
2019-03-09T11:23:26.759Z,100801.02
2019-03-09T11:25:57.784Z,100808.36
2019-03-09T11:28:33.509Z,100798.38
2019-03-09T11:31:04.579Z,100788.00
2019-03-09T11:33:37.516Z,100788.55
2019-03-09T11:36:08.094Z,100782.57
2019-03-09T11:38:38.600Z,100789.95
2019-03-09T11:41:18.753Z,100784.22
2019-03-09T11:43:42.351Z,100782.69
2019-03-09T11:46:13.195Z,100777.63
2019-03-09T11:48:43.926Z,100785.47
2019-03-09T11:51:14.717Z,100765.89
2019-03-09T11:53:45.172Z,100761.83
2019-03-09T11:56:22.162Z,100753.71
2019-03-09T11:58:58.523Z,100758.22
2019-03-09T12:01:33.424Z,100757.80
2019-03-09T12:04:07.149Z,100762.51
2019-03-09T12:06:41.377Z,100759.55
2019-03-09T12:09:17.987Z,100752.95
2019-03-09T12:11:58.304Z,100751.15
2019-03-09T12:14:33.093Z,100755.18
2019-03-09T12:17:12.210Z,100756.02
2019-03-09T12:19:37.151Z,100745.23
2019-03-09T12:22:08.314Z,100736.27
2019-03-09T12:24:47.954Z,100739.42
2019-03-09T12:27:21.642Z,100741.52
2019-03-09T12:29:52.677Z,100744.25
2019-03-09T12:32:35.496Z,100746.77
2019-03-09T12:35:06.836Z,100740.95
2019-03-09T12:37:37.259Z,100738.52
2019-03-09T12:40:09.646Z,100741.41
2019-03-09T12:42:46.837Z,100739.42
2019-03-09T12:45:17.264Z,100736.78
2019-03-09T12:47:52.903Z,100740.83
2019-03-09T12:50:27.299Z,100743.48
2019-03-09T12:52:58.546Z,100734.17
2019-03-09T12:55:30.188Z,100734.17
2019-03-09T12:58:02.297Z,100728.80
2019-03-09T13:00:35.099Z,100729.45
2019-03-09T13:03:05.703Z,100727.38
2019-03-09T13:05:36.646Z,100731.55
2019-03-09T13:08:09.007Z,100725.95
2019-03-09T13:10:41.900Z,100726.56
2019-03-09T13:13:16.908Z,100722.27
2019-03-09T13:15:47.661Z,100728.41
2019-03-09T13:18:24.553Z,100722.66
2019-03-09T13:21:03.257Z,100716.52
2019-03-09T13:23:33.885Z,100713.67
2019-03-09T13:26:07.498Z,100713.11
2019-03-09T13:28:38.018Z,100711.59
2019-03-09T13:31:08.747Z,100712.06
2019-03-09T13:33:39.280Z,100703.12
2019-03-09T13:36:10.113Z,100703.49
2019-03-09T13:38:40.640Z,100698.41
2019-03-09T13:41:11.297Z,100693.28
2019-03-09T13:43:42.012Z,100689.24
2019-03-09T13:46:12.741Z,100688.91
2019-03-09T13:48:43.334Z,100687.16
2019-03-09T13:51:16.133Z,100690.00
2019-03-09T13:53:47.869Z,100677.73
2019-03-09T13:56:18.442Z,100679.06
2019-03-09T13:58:50.290Z,100674.27
2019-03-09T14:01:21.134Z,100673.64
2019-03-09T14:03:51.661Z,100672.64
2019-03-09T14:06:25.073Z,100669.28
2019-03-09T14:09:01.033Z,100669.03
2019-03-09T14:11:33.185Z,100663.07
2019-03-09T14:14:03.710Z,100671.72
2019-03-09T14:16:34.444Z,100667.75
2019-03-09T14:19:05.210Z,100670.17
2019-03-09T14:21:36.120Z,100663.17
2019-03-09T14:24:06.747Z,100662.77
2019-03-09T14:26:38.405Z,100666.38
2019-03-09T14:29:09.262Z,100666.92
2019-03-09T14:31:39.557Z,100661.31
2019-03-09T14:34:10.700Z,100658.55
2019-03-09T14:36:41.330Z,100653.13
2019-03-09T14:39:15.035Z,100649.00
2019-03-09T14:41:45.664Z,100649.94
2019-03-09T14:44:16.091Z,100645.86
2019-03-09T14:46:46.729Z,100640.66
2019-03-09T14:49:17.149Z,100638.72
2019-03-09T14:51:48.927Z,100640.52
2019-03-09T14:54:19.748Z,100636.98
2019-03-09T14:56:50.177Z,100630.30
2019-03-09T14:59:20.593Z,100635.28
2019-03-09T15:01:51.530Z,100637.54
2019-03-09T15:04:21.961Z,100638.19
2019-03-09T15:06:52.692Z,100638.14
2019-03-09T15:09:23.332Z,100640.28
2019-03-09T15:11:54.668Z,100646.11
2019-03-09T15:14:27.207Z,100643.66
2019-03-09T15:16:57.672Z,100645.69
2019-03-09T15:19:30.219Z,100643.77
2019-03-09T15:22:00.953Z,100640.50
2019-03-09T15:24:31.577Z,100630.68
2019-03-09T15:27:03.032Z,100623.98
2019-03-09T15:29:33.691Z,100617.91
2019-03-09T15:32:05.041Z,100626.08
2019-03-09T15:34:38.928Z,100626.08
2019-03-09T15:37:10.298Z,100619.02
2019-03-09T15:39:46.015Z,100618.11
2019-03-09T15:42:16.679Z,100617.95
2019-03-09T15:44:48.761Z,100616.51
2019-03-09T15:47:19.466Z,100616.16
2019-03-09T15:49:53.298Z,100616.52
2019-03-09T15:52:23.829Z,100610.47
2019-03-09T15:54:54.241Z,100611.09
2019-03-09T15:57:24.665Z,100611.69
2019-03-09T15:59:55.405Z,100608.99
2019-03-09T16:02:26.443Z,100609.81
2019-03-09T16:04:56.768Z,100606.53
2019-03-09T16:07:27.492Z,100605.36
2019-03-09T16:09:58.027Z,100611.22
2019-03-09T16:12:28.756Z,100606.61
2019-03-09T16:14:59.182Z,100605.71
2019-03-09T16:17:30.502Z,100596.11
2019-03-09T16:20:00.871Z,100595.30
2019-03-09T16:22:33.381Z,100591.39
2019-03-09T16:25:04.543Z,100591.51
2019-03-09T16:27:35.101Z,100586.83
2019-03-09T16:30:07.571Z,100591.75
2019-03-09T16:32:39.446Z,100590.18
2019-03-09T16:35:12.068Z,100591.23
2019-03-09T16:37:42.851Z,100589.36
2019-03-09T16:40:15.288Z,100592.43
2019-03-09T16:42:48.008Z,100590.83
2019-03-09T16:45:23.725Z,100593.47
2019-03-09T16:47:54.624Z,100585.86
2019-03-09T16:50:27.091Z,100590.41
2019-03-09T16:53:00.915Z,100586.75
2019-03-09T16:55:34.463Z,100592.66
2019-03-09T16:58:04.896Z,100596.31
2019-03-09T17:00:36.073Z,100601.45
2019-03-09T17:03:07.641Z,100599.97
2019-03-09T17:05:38.507Z,100595.32
2019-03-09T17:08:09.261Z,100591.05
2019-03-09T17:10:44.928Z,100596.48
2019-03-09T17:13:23.221Z,100591.55
2019-03-09T17:15:54.061Z,100579.37
2019-03-09T17:18:24.700Z,100573.58
2019-03-09T17:20:56.778Z,100573.68
2019-03-09T17:23:27.702Z,100573.91
2019-03-09T17:25:58.342Z,100569.11
2019-03-09T17:28:28.954Z,100562.42
2019-03-09T17:31:01.380Z,100564.97
2019-03-09T17:33:33.088Z,100560.67
2019-03-09T17:36:05.458Z,100556.50
2019-03-09T17:38:37.112Z,100550.73
2019-03-09T17:41:11.772Z,100554.59
2019-03-09T17:43:42.259Z,100549.02
2019-03-09T17:46:17.556Z,100548.99
2019-03-09T17:48:51.441Z,100547.64
2019-03-09T17:51:27.221Z,100548.63
2019-03-09T17:53:56.823Z,100545.64
2019-03-09T17:56:29.268Z,100550.56
2019-03-09T17:59:02.838Z,100553.80
2019-03-09T18:01:35.973Z,100549.61
2019-03-09T18:04:06.556Z,100545.36
2019-03-09T18:06:42.416Z,100550.80
2019-03-09T18:09:12.734Z,100552.81
2019-03-09T18:11:45.674Z,100548.17
2019-03-09T18:14:16.657Z,100549.64
2019-03-09T18:16:52.725Z,100538.86
2019-03-09T18:19:23.542Z,100541.13
2019-03-09T18:21:54.392Z,100542.77
2019-03-09T18:24:25.121Z,100549.78
2019-03-09T18:26:58.055Z,100546.10
2019-03-09T18:29:29.723Z,100542.28
2019-03-09T18:32:00.712Z,100536.16
2019-03-09T18:34:34.534Z,100532.91
2019-03-09T18:37:10.645Z,100537.02
2019-03-09T18:39:50.052Z,100528.28
2019-03-09T18:42:44.082Z,100528.48
2019-03-09T18:45:22.402Z,100526.08
2019-03-09T18:47:55.993Z,100525.41
2019-03-09T18:50:26.626Z,100528.17
2019-03-09T18:52:59.671Z,100524.55
2019-03-09T18:55:33.806Z,100526.47
2019-03-09T18:58:05.275Z,100525.26
2019-03-09T19:00:43.976Z,100525.00
2019-03-09T19:03:21.013Z,100518.17
2019-03-09T19:05:53.324Z,100512.94
2019-03-09T19:08:25.513Z,100504.02
2019-03-09T19:10:59.934Z,100510.01
2019-03-09T19:13:30.259Z,100510.77
2019-03-09T19:16:02.656Z,100509.71
2019-03-09T19:18:34.796Z,100502.09
2019-03-09T19:21:05.426Z,100500.02
2019-03-09T19:23:40.947Z,100501.81
2019-03-09T19:26:11.259Z,100497.72
2019-03-09T19:28:43.668Z,100494.53
2019-03-09T19:31:17.883Z,100489.41
2019-03-09T19:33:52.715Z,100488.23
2019-03-09T19:36:31.447Z,100484.16
2019-03-09T19:39:06.400Z,100483.80
2019-03-09T19:41:39.674Z,100483.10
2019-03-09T19:44:13.565Z,100483.58
2019-03-09T19:46:44.110Z,100484.89
2019-03-09T19:49:14.827Z,100483.83
2019-03-09T19:51:45.768Z,100472.33
2019-03-09T19:54:16.295Z,100466.44
2019-03-09T19:56:46.926Z,100457.35
2019-03-09T19:59:19.322Z,100455.08
2019-03-09T20:01:51.351Z,100450.83
2019-03-09T20:04:21.659Z,100449.63
2019-03-09T20:06:52.338Z,100449.39
2019-03-09T20:09:23.666Z,100444.48
2019-03-09T20:11:55.586Z,100440.06
2019-03-09T20:14:26.262Z,100438.16
2019-03-09T20:17:04.994Z,100437.49
2019-03-09T20:19:44.313Z,100438.34
2019-03-09T20:22:17.309Z,100428.87
2019-03-09T20:24:48.394Z,100429.05
2019-03-09T20:27:26.122Z,100425.11
2019-03-09T20:29:58.415Z,100426.73
2019-03-09T20:32:32.212Z,100424.36
2019-03-09T20:35:03.047Z,100420.48
2019-03-09T20:37:50.291Z,100415.22
2019-03-09T20:40:23.974Z,100417.64
2019-03-09T20:42:54.398Z,100406.76
2019-03-09T20:45:25.036Z,100403.28
2019-03-09T20:47:56.175Z,100392.56
2019-03-09T20:50:26.911Z,100393.17
2019-03-09T20:52:58.251Z,100389.67
2019-03-09T20:55:28.780Z,100389.42
2019-03-09T20:57:59.312Z,100387.41
2019-03-09T21:00:31.958Z,100384.66
2019-03-09T21:03:02.109Z,100378.64
2019-03-09T21:05:32.326Z,100370.31
2019-03-09T21:08:02.652Z,100364.20
2019-03-09T21:10:33.184Z,100360.80
2019-03-09T21:13:07.674Z,100350.84
2019-03-09T21:15:38.127Z,100345.55
2019-03-09T21:18:08.658Z,100339.58
2019-03-09T21:20:39.186Z,100331.19
2019-03-09T21:23:13.505Z,100325.98
2019-03-09T21:25:47.319Z,100306.13
2019-03-09T21:28:16.501Z,100308.81
2019-03-09T21:30:48.889Z,100308.54
2019-03-09T21:33:19.818Z,100316.48
2019-03-09T21:35:50.349Z,100315.32
2019-03-09T21:38:21.266Z,100313.73
2019-03-09T21:40:52.028Z,100316.95
2019-03-09T21:43:23.070Z,100313.48
2019-03-09T21:45:53.588Z,100312.36
2019-03-09T21:48:23.917Z,100304.76
2019-03-09T21:50:54.746Z,100305.28
2019-03-09T21:53:25.480Z,100298.58
2019-03-09T21:55:56.629Z,100297.81
2019-03-09T21:58:29.075Z,100298.81
2019-03-09T22:00:59.711Z,100300.03
2019-03-09T22:03:30.167Z,100294.45
2019-03-09T22:06:06.016Z,100293.41
2019-03-09T22:08:32.810Z,100285.77
2019-03-09T22:11:03.377Z,100286.61
2019-03-09T22:13:35.705Z,100290.70
2019-03-09T22:16:06.276Z,100281.44
2019-03-09T22:18:37.010Z,100282.89
2019-03-09T22:21:07.640Z,100280.13
2019-03-09T22:23:43.965Z,100276.57
2019-03-09T22:26:10.521Z,100271.42
2019-03-09T22:28:40.966Z,100274.64
2019-03-09T22:31:11.289Z,100272.73
2019-03-09T22:33:42.227Z,100267.09
2019-03-09T22:36:12.554Z,100261.36
2019-03-09T22:38:42.978Z,100260.38
2019-03-09T22:41:13.526Z,100251.62
2019-03-09T22:43:44.217Z,100244.09
2019-03-09T22:46:15.898Z,100237.72
2019-03-09T22:48:46.427Z,100243.17
2019-03-09T22:51:17.469Z,100242.56
2019-03-09T22:53:47.994Z,100242.92
2019-03-09T22:56:18.599Z,100238.72
2019-03-09T22:58:49.262Z,100237.97
2019-03-09T23:01:20.194Z,100239.63
2019-03-09T23:03:50.625Z,100235.13
2019-03-09T23:06:22.072Z,100237.84
2019-03-09T23:08:52.603Z,100237.84
2019-03-09T23:11:23.227Z,100241.56
2019-03-09T23:13:53.453Z,100232.25
2019-03-09T23:16:23.879Z,100234.25
2019-03-09T23:18:54.384Z,100226.81
2019-03-09T23:21:24.793Z,100225.26
2019-03-09T23:23:55.364Z,100229.12
2019-03-09T23:26:25.993Z,100222.97
2019-03-09T23:28:56.521Z,100221.55
2019-03-09T23:31:26.846Z,100212.11
2019-03-09T23:33:58.489Z,100219.97
2019-03-09T23:36:29.028Z,100224.77
2019-03-09T23:38:59.657Z,100223.34
2019-03-09T23:41:31.415Z,100218.03
2019-03-09T23:44:01.944Z,100214.59
2019-03-09T23:46:32.267Z,100206.81
2019-03-09T23:49:02.695Z,100208.73
2019-03-09T23:51:33.631Z,100204.31
2019-03-09T23:54:03.958Z,100201.44
2019-03-09T23:56:34.380Z,100202.86
2019-03-09T23:59:04.908Z,100195.38
